Billie H — WCY4992 — position and weather

sailwx.info

Track history (hours):
 
Tides and Currents Weather Stations Pressure Air Temp Water Temp Dewpoint Dewpoint Depression Visibility Wind Speed Wind Dir Waves Ship Positions

Billie H

Owner: BOYER TOWING INC, KETCHIKAN, AK. More information available from US FCC via Universal Licensing System and Coast Guard Vessel Documentation Center.

Last reported at 2017-Feb-13 21:33 UTC. Time now 2017-Feb-21 21:39 UTC.
Position N 47°34' W 122°21'.
Warning: this ship's position is 8 days out of date.

Type: Tow > 200 m length. MMSI: 366751770.

Date/timePositionNaut miles runAvg speedWind from/ knotsBaromVisibWave heightAir tempDewpointWater temp
2017-Feb-13 21:33N 47°34' W 122°21'8 8.1
2017-Feb-13 20:33N 47°35' W 122°33'6 5.9
2017-Feb-13 19:34N 47°32' W 122°40'0 0.0
2017-Feb-13 18:33N 47°32' W 122°40'3 2.9
2017-Feb-13 17:33N 47°34' W 122°36'6 5.9
2017-Feb-13 16:33N 47°35' W 122°28'4 3.8
2017-Feb-13 15:33N 47°35' W 122°22'0 0.1
2017-Feb-13 14:33N 47°35' W 122°22'3 2.8
2017-Feb-13 13:33N 47°37' W 122°26'10 9.7
2017-Feb-13 12:33N 47°47' W 122°27'1110.2
2017-Feb-13 11:31N 47°56' W 122°33'1511.8
2017-Feb-13 10:12N 48°09' W 122°45'711.0
2017-Feb-13 09:33N 48°11' W 122°56'10 9.9
2017-Feb-13 08:33N 48°12' W 123°11'8 8.2
2017-Feb-13 07:33N 48°12' W 123°23'7 7.4
2017-Feb-13 06:33N 48°13' W 123°34'7 7.3
2017-Feb-13 05:33N 48°13' W 123°45'8 7.6
2017-Feb-13 04:33N 48°13' W 123°56'62 4.7
2017-Feb-12 15:20N 47°18' W 124°38'6 7.7
2017-Feb-12 14:33N 47°12' W 124°36'8 8.0
2017-Feb-12 13:33N 47°04' W 124°33'8 7.9
2017-Feb-12 12:33N 46°57' W 124°31'8 8.0
2017-Feb-12 11:33N 46°49' W 124°28'8 7.5
2017-Feb-12 10:33N 46°41' W 124°26'8 7.6
2017-Feb-12 09:33N 46°34' W 124°24'8 8.2
2017-Feb-12 08:33N 46°26' W 124°22'9 8.8
2017-Feb-12 07:33N 46°17' W 124°19'8 7.7
2017-Feb-12 06:34N 46°12' W 124°11'7 7.0
2017-Feb-12 05:33N 46°16' W 124°03'9 8.6
2017-Feb-12 04:33N 46°12' W 123°52'1211.7
2017-Feb-12 03:33N 46°15' W 123°36'9 9.1
2017-Feb-12 02:33N 46°10' W 123°25'1110.9
2017-Feb-12 01:33N 46°11' W 123°09'1111.3
2017-Feb-12 00:33N 46°06' W 122°55'1010.3
2017-Feb-11 23:33N 45°56' W 122°48'1110.9
2017-Feb-11 22:33N 45°46' W 122°46'8 8.3
2017-Feb-11 21:33N 45°37' W 122°47'0 0.1
2017-Feb-11 20:33N 45°37' W 122°47'0 0.0
2017-Feb-11 19:33N 45°37' W 122°47'0 0.0
2017-Feb-11 18:33N 45°37' W 122°47'0 0.0
2017-Feb-11 17:33N 45°37' W 122°47'0 0.0
2017-Feb-11 16:33N 45°37' W 122°47'0 0.0
2017-Feb-11 15:33N 45°37' W 122°47'0 0.0
2017-Feb-11 14:33N 45°37' W 122°47'0 0.0
2017-Feb-11 13:33N 45°37' W 122°47'0 0.0
2017-Feb-11 12:33N 45°37' W 122°47'0 0.0
2017-Feb-11 11:33N 45°37' W 122°47'0 0.0
2017-Feb-11 10:33N 45°37' W 122°47'0 0.0
2017-Feb-11 09:33N 45°37' W 122°47'0 0.0
2017-Feb-11 08:33N 45°37' W 122°47'0 0.0
2017-Feb-11 07:33N 45°37' W 122°47'0 0.0
2017-Feb-11 06:33N 45°37' W 122°47'0 0.0
2017-Feb-11 05:33N 45°37' W 122°47'0 0.0
2017-Feb-11 04:33N 45°37' W 122°47'0 0.0
2017-Feb-11 03:33N 45°37' W 122°47'0 0.0
2017-Feb-11 02:33N 45°37' W 122°47'0 0.0
2017-Feb-11 01:33N 45°37' W 122°47'0 0.0
2017-Feb-11 00:33N 45°37' W 122°47'0 0.0
2017-Feb-10 23:33N 45°37' W 122°47'0 0.0
2017-Feb-10 22:33N 45°37' W 122°47'0 0.0
2017-Feb-10 21:33N 45°37' W 122°47'0 0.0
2017-Feb-10 20:33N 45°37' W 122°47'0 0.0
2017-Feb-10 19:33N 45°37' W 122°47'0 0.0
2017-Feb-10 18:33N 45°37' W 122°47'0 0.0
2017-Feb-10 17:33N 45°37' W 122°47'0 0.0
2017-Feb-10 16:33N 45°37' W 122°47'0 0.0
2017-Feb-10 15:33N 45°37' W 122°47'0 0.0
2017-Feb-10 14:33N 45°37' W 122°47'0 0.0
2017-Feb-10 13:33N 45°37' W 122°47'0 0.0
2017-Feb-10 12:33N 45°37' W 122°47'0 0.0
2017-Feb-10 11:33N 45°37' W 122°47'0 0.0
2017-Feb-10 10:33N 45°37' W 122°47'0 0.0
2017-Feb-10 09:33N 45°37' W 122°47'0 0.0
2017-Feb-10 08:33N 45°37' W 122°47'0 0.0
2017-Feb-10 07:33N 45°37' W 122°47'0 0.0
2017-Feb-10 06:33N 45°37' W 122°47'0 0.0
2017-Feb-10 05:33N 45°37' W 122°47'0 0.0
2017-Feb-10 04:33N 45°37' W 122°47'0 0.0
2017-Feb-10 03:33N 45°37' W 122°47'0 0.0
2017-Feb-10 02:33N 45°37' W 122°47'0 0.0
2017-Feb-10 01:33N 45°37' W 122°47'0 0.0
2017-Feb-10 00:33N 45°37' W 122°47'0 0.0
2017-Feb-09 23:33N 45°37' W 122°47'0 0.0
2017-Feb-09 22:33N 45°37' W 122°47'0 0.0
2017-Feb-09 21:33N 45°37' W 122°47'0 0.5
2017-Feb-09 20:33N 45°38' W 122°47'2 1.6
2017-Feb-09 19:33N 45°39' W 122°46'4 4.4
2017-Feb-09 18:33N 45°44' W 122°46'4 4.3
2017-Feb-09 17:33N 45°48' W 122°47'4 4.2
2017-Feb-09 16:33N 45°52' W 122°47'4 4.0
2017-Feb-09 15:33N 45°56' W 122°48'4 4.3
2017-Feb-09 14:33N 45°60' W 122°51'4 4.3
2017-Feb-09 13:34N 46°04' W 122°53'4 4.4
2017-Feb-09 12:33N 46°06' W 122°58'5 4.7
2017-Feb-09 11:33N 46°09' W 123°03'5 4.9
2017-Feb-09 10:34N 46°11' W 123°10'5 5.4
2017-Feb-09 09:33N 46°09' W 123°17'5 5.5
2017-Feb-09 08:33N 46°10' W 123°25'6 5.8
2017-Feb-09 07:34N 46°16' W 123°27'6 6.2
2017-Feb-09 06:34N 46°15' W 123°36'7 6.6
2017-Feb-09 05:33N 46°13' W 123°45'7 7.2
2017-Feb-09 04:34N 46°12' W 123°56'6 5.8
2017-Feb-09 03:33N 46°15' W 124°02'3 2.8
2017-Feb-09 02:33N 46°15' W 124°06'4 3.7
2017-Feb-09 01:33N 46°12' W 124°10'6 5.8
2017-Feb-09 00:33N 46°14' W 124°18'4 3.6
2017-Feb-08 23:33N 46°17' W 124°22'2 2.1
2017-Feb-08 22:33N 46°18' W 124°24'3 2.5
2017-Feb-08 21:33N 46°20' W 124°26'2 2.4
2017-Feb-08 20:33N 46°22' W 124°28'3 2.9
2017-Feb-08 19:33N 46°24' W 124°31'4 4.5
2017-Feb-08 18:33N 46°28' W 124°35'5 4.7
2017-Feb-08 17:33N 46°31' W 124°39'5 4.8
2017-Feb-08 16:33N 46°35' W 124°43'5 4.9
2017-Feb-08 15:33N 46°39' W 124°48'5 4.9
2017-Feb-08 14:33N 46°42' W 124°53'5 5.2
2017-Feb-08 13:33N 46°46' W 124°58'6 5.7
2017-Feb-08 12:33N 46°51' W 125°04'6 5.9
2017-Feb-08 11:33N 46°55' W 125°09'276 5.5
2017-Feb-06 09:33N 51°09' W 127°54'21 7.0
2017-Feb-06 06:31N 51°30' W 127°52'  
Track history (hours):
 
Tides and Currents Weather Stations Pressure Air Temp Water Temp Dewpoint Dewpoint Depression Visibility Wind Speed Wind Dir Waves Ship Positions

Billie H

Owner: BOYER TOWING INC, KETCHIKAN, AK. More information available from US FCC via Universal Licensing System and Coast Guard Vessel Documentation Center.

Last reported at 2017-Feb-13 21:33 UTC. Time now 2017-Feb-21 21:39 UTC.
Position N 47°34' W 122°21'.
Warning: this ship's position is 8 days out of date.

Type: Tow > 200 m length. MMSI: 366751770.

Date/timePositionNaut miles runAvg speedWind from/ knotsBaromVisibWave heightAir tempDewpointWater temp
2017-Feb-13 21:33N 47°34' W 122°21'8 8.1
2017-Feb-13 20:33N 47°35' W 122°33'6 5.9
2017-Feb-13 19:34N 47°32' W 122°40'0 0.0
2017-Feb-13 18:33N 47°32' W 122°40'3 2.9
2017-Feb-13 17:33N 47°34' W 122°36'6 5.9
2017-Feb-13 16:33N 47°35' W 122°28'4 3.8
2017-Feb-13 15:33N 47°35' W 122°22'0 0.1
2017-Feb-13 14:33N 47°35' W 122°22'3 2.8
2017-Feb-13 13:33N 47°37' W 122°26'10 9.7
2017-Feb-13 12:33N 47°47' W 122°27'1110.2
2017-Feb-13 11:31N 47°56' W 122°33'1511.8
2017-Feb-13 10:12N 48°09' W 122°45'711.0
2017-Feb-13 09:33N 48°11' W 122°56'10 9.9
2017-Feb-13 08:33N 48°12' W 123°11'8 8.2
2017-Feb-13 07:33N 48°12' W 123°23'7 7.4
2017-Feb-13 06:33N 48°13' W 123°34'7 7.3
2017-Feb-13 05:33N 48°13' W 123°45'8 7.6
2017-Feb-13 04:33N 48°13' W 123°56'62 4.7
2017-Feb-12 15:20N 47°18' W 124°38'6 7.7
2017-Feb-12 14:33N 47°12' W 124°36'8 8.0
2017-Feb-12 13:33N 47°04' W 124°33'8 7.9
2017-Feb-12 12:33N 46°57' W 124°31'8 8.0
2017-Feb-12 11:33N 46°49' W 124°28'8 7.5
2017-Feb-12 10:33N 46°41' W 124°26'8 7.6
2017-Feb-12 09:33N 46°34' W 124°24'8 8.2
2017-Feb-12 08:33N 46°26' W 124°22'9 8.8
2017-Feb-12 07:33N 46°17' W 124°19'8 7.7
2017-Feb-12 06:34N 46°12' W 124°11'7 7.0
2017-Feb-12 05:33N 46°16' W 124°03'9 8.6
2017-Feb-12 04:33N 46°12' W 123°52'1211.7
2017-Feb-12 03:33N 46°15' W 123°36'9 9.1
2017-Feb-12 02:33N 46°10' W 123°25'1110.9
2017-Feb-12 01:33N 46°11' W 123°09'1111.3
2017-Feb-12 00:33N 46°06' W 122°55'1010.3
2017-Feb-11 23:33N 45°56' W 122°48'1110.9
2017-Feb-11 22:33N 45°46' W 122°46'8 8.3
2017-Feb-11 21:33N 45°37' W 122°47'0 0.1
2017-Feb-11 20:33N 45°37' W 122°47'0 0.0
2017-Feb-11 19:33N 45°37' W 122°47'0 0.0
2017-Feb-11 18:33N 45°37' W 122°47'0 0.0
2017-Feb-11 17:33N 45°37' W 122°47'0 0.0
2017-Feb-11 16:33N 45°37' W 122°47'0 0.0
2017-Feb-11 15:33N 45°37' W 122°47'0 0.0
2017-Feb-11 14:33N 45°37' W 122°47'0 0.0
2017-Feb-11 13:33N 45°37' W 122°47'0 0.0
2017-Feb-11 12:33N 45°37' W 122°47'0 0.0
2017-Feb-11 11:33N 45°37' W 122°47'0 0.0
2017-Feb-11 10:33N 45°37' W 122°47'0 0.0
2017-Feb-11 09:33N 45°37' W 122°47'0 0.0
2017-Feb-11 08:33N 45°37' W 122°47'0 0.0
2017-Feb-11 07:33N 45°37' W 122°47'0 0.0
2017-Feb-11 06:33N 45°37' W 122°47'0 0.0
2017-Feb-11 05:33N 45°37' W 122°47'0 0.0
2017-Feb-11 04:33N 45°37' W 122°47'0 0.0
2017-Feb-11 03:33N 45°37' W 122°47'0 0.0
2017-Feb-11 02:33N 45°37' W 122°47'0 0.0
2017-Feb-11 01:33N 45°37' W 122°47'0 0.0
2017-Feb-11 00:33N 45°37' W 122°47'0 0.0
2017-Feb-10 23:33N 45°37' W 122°47'0 0.0
2017-Feb-10 22:33N 45°37' W 122°47'0 0.0
2017-Feb-10 21:33N 45°37' W 122°47'0 0.0
2017-Feb-10 20:33N 45°37' W 122°47'0 0.0
2017-Feb-10 19:33N 45°37' W 122°47'0 0.0
2017-Feb-10 18:33N 45°37' W 122°47'0 0.0
2017-Feb-10 17:33N 45°37' W 122°47'0 0.0
2017-Feb-10 16:33N 45°37' W 122°47'0 0.0
2017-Feb-10 15:33N 45°37' W 122°47'0 0.0
2017-Feb-10 14:33N 45°37' W 122°47'0 0.0
2017-Feb-10 13:33N 45°37' W 122°47'0 0.0
2017-Feb-10 12:33N 45°37' W 122°47'0 0.0
2017-Feb-10 11:33N 45°37' W 122°47'0 0.0
2017-Feb-10 10:33N 45°37' W 122°47'0 0.0
2017-Feb-10 09:33N 45°37' W 122°47'0 0.0
2017-Feb-10 08:33N 45°37' W 122°47'0 0.0
2017-Feb-10 07:33N 45°37' W 122°47'0 0.0
2017-Feb-10 06:33N 45°37' W 122°47'0 0.0
2017-Feb-10 05:33N 45°37' W 122°47'0 0.0
2017-Feb-10 04:33N 45°37' W 122°47'0 0.0
2017-Feb-10 03:33N 45°37' W 122°47'0 0.0
2017-Feb-10 02:33N 45°37' W 122°47'0 0.0
2017-Feb-10 01:33N 45°37' W 122°47'0 0.0
2017-Feb-10 00:33N 45°37' W 122°47'0 0.0
2017-Feb-09 23:33N 45°37' W 122°47'0 0.0
2017-Feb-09 22:33N 45°37' W 122°47'0 0.0
2017-Feb-09 21:33N 45°37' W 122°47'0 0.5
2017-Feb-09 20:33N 45°38' W 122°47'2 1.6
2017-Feb-09 19:33N 45°39' W 122°46'4 4.4
2017-Feb-09 18:33N 45°44' W 122°46'4 4.3
2017-Feb-09 17:33N 45°48' W 122°47'4 4.2
2017-Feb-09 16:33N 45°52' W 122°47'4 4.0
2017-Feb-09 15:33N 45°56' W 122°48'4 4.3
2017-Feb-09 14:33N 45°60' W 122°51'4 4.3
2017-Feb-09 13:34N 46°04' W 122°53'4 4.4
2017-Feb-09 12:33N 46°06' W 122°58'5 4.7
2017-Feb-09 11:33N 46°09' W 123°03'5 4.9
2017-Feb-09 10:34N 46°11' W 123°10'5 5.4
2017-Feb-09 09:33N 46°09' W 123°17'5 5.5
2017-Feb-09 08:33N 46°10' W 123°25'6 5.8
2017-Feb-09 07:34N 46°16' W 123°27'6 6.2
2017-Feb-09 06:34N 46°15' W 123°36'7 6.6
2017-Feb-09 05:33N 46°13' W 123°45'7 7.2
2017-Feb-09 04:34N 46°12' W 123°56'6 5.8
2017-Feb-09 03:33N 46°15' W 124°02'3 2.8
2017-Feb-09 02:33N 46°15' W 124°06'4 3.7
2017-Feb-09 01:33N 46°12' W 124°10'6 5.8
2017-Feb-09 00:33N 46°14' W 124°18'4 3.6
2017-Feb-08 23:33N 46°17' W 124°22'2 2.1
2017-Feb-08 22:33N 46°18' W 124°24'3 2.5
2017-Feb-08 21:33N 46°20' W 124°26'2 2.4
2017-Feb-08 20:33N 46°22' W 124°28'3 2.9
2017-Feb-08 19:33N 46°24' W 124°31'4 4.5
2017-Feb-08 18:33N 46°28' W 124°35'5 4.7
2017-Feb-08 17:33N 46°31' W 124°39'5 4.8
2017-Feb-08 16:33N 46°35' W 124°43'5 4.9
2017-Feb-08 15:33N 46°39' W 124°48'5 4.9
2017-Feb-08 14:33N 46°42' W 124°53'5 5.2
2017-Feb-08 13:33N 46°46' W 124°58'6 5.7
2017-Feb-08 12:33N 46°51' W 125°04'6 5.9
2017-Feb-08 11:33N 46°55' W 125°09'276 5.5
2017-Feb-06 09:33N 51°09' W 127°54'21 7.0
2017-Feb-06 06:31N 51°30' W 127°52'  

Dump ship's entire track history